Time;durP1;ratioP1;P1;durP2;ratioP2;P2;SDS_P1;SDS_P2;PMS_P1;PMS_P2;Temp;Humidity;BMP_temperature;BMP_pressure;BME280_temperature;BME280_humidity;BME280_pressure;Samples;Min_cycle;Max_cycle;Signal;HPM_P1;HPM_P2
2023/06/22 00:01:04;;;;;;;6.77;5.80;;;;;;;;;;5053463;28;20609;-50
2023/06/22 00:03:30;;;;;;;7.00;6.30;;;;;;;;;;5047961;28;20405;-52
2023/06/22 00:05:56;;;;;;;7.30;6.60;;;;;;;;;;5059851;28;20403;-51
2023/06/22 00:08:22;;;;;;;9.10;6.20;;;;;;;;;;5044350;28;20930;-52
2023/06/22 00:10:48;;;;;;;7.07;6.10;;;;;;;;;;5050872;28;20430;-52
2023/06/22 00:13:15;;;;;;;7.73;7.00;;;;;;;;;;5055120;28;20459;-50
2023/06/22 00:15:42;;;;;;;9.60;8.40;;;;;;;;;;5056391;28;21233;-52
2023/06/22 00:18:08;;;;;;;8.07;7.27;;;;;;;;;;5055222;28;20410;-51
2023/06/22 00:20:36;;;;;;;8.37;6.80;;;;;;;;;;5059227;28;20556;-52
2023/06/22 00:23:07;;;;;;;9.30;7.50;;;;;;;;;;5049624;28;20420;-52
2023/06/22 00:25:34;;;;;;;10.83;6.67;;;;;;;;;;5044259;28;20826;-52
2023/06/22 00:27:59;;;;;;;9.00;6.80;;;;;;;;;;5049193;28;20406;-52
2023/06/22 00:30:25;;;;;;;7.37;6.33;;;;;;;;;;5056701;28;20439;-52
2023/06/22 00:32:51;;;;;;;8.50;7.60;;;;;;;;;;5055718;28;20416;-51
2023/06/22 00:35:17;;;;;;;6.47;5.57;;;;;;;;;;5053727;28;20400;-52
2023/06/22 00:37:43;;;;;;;7.63;6.43;;;;;;;;;;5057687;28;20497;-51
2023/06/22 00:40:11;;;;;;;11.90;6.80;;;;;;;;;;5055279;28;20483;-52
2023/06/22 00:42:38;;;;;;;9.13;6.40;;;;;;;;;;5058918;28;20411;-52
2023/06/22 00:45:05;;;;;;;6.93;6.33;;;;;;;;;;5050915;28;20519;-52
2023/06/22 00:47:30;;;;;;;8.70;7.80;;;;;;;;;;5056079;28;20508;-52
2023/06/22 00:49:56;;;;;;;10.20;7.63;;;;;;;;;;5061004;28;20956;-51
2023/06/22 00:52:27;;;;;;;6.60;6.00;;;;;;;;;;5053063;28;20790;-52
2023/06/22 00:54:52;;;;;;;8.27;7.00;;;;;;;;;;5058402;28;20491;-51
2023/06/22 00:57:19;;;;;;;7.13;6.53;;;;;;;;;;5051901;28;20449;-52
2023/06/22 00:59:45;;;;;;;9.60;7.23;;;;;;;;;;5046199;28;20429;-51
2023/06/22 01:02:11;;;;;;;7.40;6.70;;;;;;;;;;5070166;28;20466;-52
2023/06/22 01:04:38;;;;;;;8.17;6.07;;;;;;;;;;5066069;28;20406;-52
2023/06/22 01:07:23;;;;;;;6.80;6.20;;;;;;;;;;5046484;28;20406;-52
2023/06/22 01:09:51;;;;;;;7.73;6.93;;;;;;;;;;5041087;28;20417;-52
2023/06/22 01:12:18;;;;;;;8.87;6.00;;;;;;;;;;5056011;28;20436;-52
2023/06/22 01:14:50;;;;;;;12.00;7.10;;;;;;;;;;5052511;28;20417;-52
2023/06/22 01:17:16;;;;;;;7.50;6.70;;;;;;;;;;5061213;28;20431;-52
2023/06/22 01:19:54;;;;;;;12.60;6.60;;;;;;;;;;5056463;28;20719;-51
2023/06/22 01:22:21;;;;;;;8.47;7.63;;;;;;;;;;5053364;28;20570;-50
2023/06/22 01:25:06;;;;;;;7.80;7.20;;;;;;;;;;5047377;28;20423;-51
2023/06/22 01:27:41;;;;;;;7.47;6.70;;;;;;;;;;5054440;28;20405;-51
2023/06/22 01:30:10;;;;;;;7.83;6.87;;;;;;;;;;5054447;28;20404;-51
2023/06/22 01:32:37;;;;;;;7.67;6.90;;;;;;;;;;5065332;28;20414;-51
2023/06/22 01:35:04;;;;;;;9.30;7.80;;;;;;;;;;5060898;28;20407;-51
2023/06/22 01:37:32;;;;;;;10.03;7.20;;;;;;;;;;5051954;28;20416;-52
2023/06/22 01:39:58;;;;;;;10.57;7.07;;;;;;;;;;5061637;28;20401;-51
2023/06/22 01:42:25;;;;;;;10.23;8.80;;;;;;;;;;5052184;28;20401;-50
2023/06/22 01:44:52;;;;;;;11.23;7.83;;;;;;;;;;5046965;28;20951;-51
2023/06/22 01:47:18;;;;;;;8.73;7.93;;;;;;;;;;5045825;28;20473;-51
2023/06/22 01:49:44;;;;;;;12.20;8.23;;;;;;;;;;5044438;28;20861;-51
2023/06/22 01:52:10;;;;;;;8.43;7.63;;;;;;;;;;5044768;28;20441;-51
2023/06/22 01:54:36;;;;;;;9.40;7.27;;;;;;;;;;5049148;28;20439;-51
2023/06/22 01:57:02;;;;;;;7.73;7.03;;;;;;;;;;5048369;28;20527;-51
2023/06/22 01:59:47;;;;;;;9.03;8.13;;;;;;;;;;5053480;28;20421;-50
2023/06/22 02:02:16;;;;;;;9.50;8.60;;;;;;;;;;5053183;28;20463;-50
2023/06/22 02:04:47;;;;;;;9.47;8.13;;;;;;;;;;5055692;28;20882;-51
2023/06/22 02:07:14;;;;;;;11.43;8.20;;;;;;;;;;5052467;28;20501;-52
2023/06/22 02:09:43;;;;;;;8.20;6.63;;;;;;;;;;5058387;28;20456;-49
2023/06/22 02:12:10;;;;;;;8.00;6.23;;;;;;;;;;5056946;28;20820;-51
2023/06/22 02:14:37;;;;;;;11.90;7.23;;;;;;;;;;5039631;28;20432;-51
2023/06/22 02:17:07;;;;;;;9.50;7.07;;;;;;;;;;5060146;28;20982;-51
2023/06/22 02:19:33;;;;;;;8.97;8.17;;;;;;;;;;5051381;28;20421;-52
2023/06/22 02:21:59;;;;;;;10.73;8.43;;;;;;;;;;5051247;28;20571;-51
2023/06/22 02:24:25;;;;;;;8.27;7.47;;;;;;;;;;5051970;28;20406;-50
2023/06/22 02:26:51;;;;;;;10.23;9.07;;;;;;;;;;5044243;28;20990;-51
2023/06/22 02:29:17;;;;;;;10.40;8.20;;;;;;;;;;5059513;28;20466;-50
2023/06/22 02:31:43;;;;;;;9.70;8.70;;;;;;;;;;5048443;28;20437;-50
2023/06/22 02:34:09;;;;;;;9.03;8.17;;;;;;;;;;5044049;28;20422;-51
2023/06/22 02:36:35;;;;;;;11.67;8.17;;;;;;;;;;5054283;28;20425;-51
2023/06/22 02:39:03;;;;;;;8.90;7.77;;;;;;;;;;5054362;28;20413;-51
2023/06/22 02:41:29;;;;;;;10.90;8.90;;;;;;;;;;5052918;28;20475;-51
2023/06/22 02:43:55;;;;;;;10.80;9.80;;;;;;;;;;5055157;28;20408;-50
2023/06/22 02:46:21;;;;;;;9.37;8.13;;;;;;;;;;5052852;28;20410;-50
2023/06/22 02:48:47;;;;;;;10.00;8.10;;;;;;;;;;5057938;28;20418;-50
2023/06/22 02:51:13;;;;;;;11.73;9.23;;;;;;;;;;5058852;28;20509;-51
2023/06/22 02:53:39;;;;;;;12.17;10.00;;;;;;;;;;5044413;28;20410;-51
2023/06/22 02:56:05;;;;;;;10.13;9.03;;;;;;;;;;5057691;28;20486;-51
2023/06/22 02:58:38;;;;;;;13.50;9.77;;;;;;;;;;5059921;28;20418;-51
2023/06/22 03:01:04;;;;;;;13.03;10.00;;;;;;;;;;5051778;28;20474;-50
2023/06/22 03:03:30;;;;;;;14.17;10.80;;;;;;;;;;5053252;28;20398;-51
2023/06/22 03:05:56;;;;;;;11.30;10.03;;;;;;;;;;5055439;28;20747;-50
2023/06/22 03:08:22;;;;;;;14.80;9.73;;;;;;;;;;5045656;28;20450;-51
2023/06/22 03:10:48;;;;;;;12.13;9.73;;;;;;;;;;5057523;28;20450;-52
2023/06/22 03:13:14;;;;;;;10.07;9.03;;;;;;;;;;5062038;28;20428;-50
2023/06/22 03:15:40;;;;;;;12.07;9.50;;;;;;;;;;5041721;28;20489;-51
2023/06/22 03:18:06;;;;;;;11.60;9.57;;;;;;;;;;5053013;28;20785;-51
2023/06/22 03:20:33;;;;;;;10.73;9.33;;;;;;;;;;5051412;28;20463;-51
2023/06/22 03:23:00;;;;;;;13.67;11.67;;;;;;;;;;5053753;28;20897;-50
2023/06/22 03:25:25;;;;;;;10.53;9.53;;;;;;;;;;5058190;28;20419;-51
2023/06/22 03:27:51;;;;;;;10.50;9.60;;;;;;;;;;5064703;28;20420;-51
2023/06/22 03:30:17;;;;;;;9.50;8.63;;;;;;;;;;5047746;28;20456;-51
2023/06/22 03:32:43;;;;;;;10.87;9.77;;;;;;;;;;5062348;28;20448;-51
2023/06/22 03:35:13;;;;;;;9.03;8.20;;;;;;;;;;5052051;28;20775;-51
2023/06/22 03:37:39;;;;;;;10.23;9.13;;;;;;;;;;5043595;28;20516;-51
2023/06/22 03:40:06;;;;;;;15.73;11.67;;;;;;;;;;5052889;28;20414;-51
2023/06/22 03:42:32;;;;;;;14.27;12.47;;;;;;;;;;5052527;28;20407;-51
2023/06/22 03:44:58;;;;;;;14.57;12.93;;;;;;;;;;5051737;28;20472;-51
2023/06/22 03:47:24;;;;;;;16.77;13.87;;;;;;;;;;5047514;28;20411;-51
2023/06/22 03:49:50;;;;;;;14.20;12.80;;;;;;;;;;5055434;28;20411;-51
2023/06/22 03:52:15;;;;;;;16.77;14.40;;;;;;;;;;5067474;28;21124;-51
2023/06/22 03:54:41;;;;;;;14.80;12.93;;;;;;;;;;5057322;28;20455;-50
2023/06/22 03:57:07;;;;;;;16.00;14.30;;;;;;;;;;5050890;28;20412;-52
2023/06/22 03:59:33;;;;;;;16.50;14.77;;;;;;;;;;5057461;28;20473;-51
2023/06/22 04:02:00;;;;;;;17.00;14.30;;;;;;;;;;5056285;28;20468;-51
2023/06/22 04:04:26;;;;;;;17.73;14.37;;;;;;;;;;5060756;28;20893;-51
2023/06/22 04:06:51;;;;;;;18.57;13.67;;;;;;;;;;5060126;28;20427;-51
2023/06/22 04:09:17;;;;;;;16.30;14.00;;;;;;;;;;5057341;28;20861;-51
2023/06/22 04:11:43;;;;;;;16.73;14.93;;;;;;;;;;5057694;28;20545;-50
2023/06/22 04:14:09;;;;;;;19.60;13.50;;;;;;;;;;5058867;28;20468;-51
2023/06/22 04:16:35;;;;;;;15.30;13.80;;;;;;;;;;5042700;28;20386;-50
2023/06/22 04:19:01;;;;;;;16.20;14.50;;;;;;;;;;5064135;28;20427;-51
2023/06/22 04:21:27;;;;;;;15.00;13.37;;;;;;;;;;5028690;28;20500;-49
2023/06/22 04:23:53;;;;;;;16.60;13.70;;;;;;;;;;5046065;28;20487;-51
2023/06/22 04:26:20;;;;;;;17.93;14.33;;;;;;;;;;5048240;28;20871;-51
2023/06/22 04:28:51;;;;;;;15.10;13.30;;;;;;;;;;5057875;28;20396;-49
2023/06/22 04:31:18;;;;;;;21.03;14.70;;;;;;;;;;5053440;28;20436;-51
2023/06/22 04:33:45;;;;;;;16.80;13.73;;;;;;;;;;5048422;28;20414;-51
2023/06/22 04:36:13;;;;;;;15.90;14.00;;;;;;;;;;5048530;28;20417;-50
2023/06/22 04:38:39;;;;;;;17.83;14.80;;;;;;;;;;5050846;28;20736;-50
2023/06/22 04:41:06;;;;;;;15.87;14.30;;;;;;;;;;5062764;28;20466;-51
2023/06/22 04:43:32;;;;;;;17.20;14.33;;;;;;;;;;5054209;28;20409;-51
2023/06/22 04:46:03;;;;;;;20.60;14.80;;;;;;;;;;5054258;28;20435;-51
2023/06/22 04:48:32;;;;;;;16.70;14.53;;;;;;;;;;5055193;28;20421;-51
2023/06/22 04:51:02;;;;;;;17.90;15.17;;;;;;;;;;5055581;28;20472;-51
2023/06/22 04:53:29;;;;;;;14.53;13.03;;;;;;;;;;5050399;28;20427;-51
2023/06/22 04:55:55;;;;;;;14.40;12.60;;;;;;;;;;5040075;28;20950;-51
2023/06/22 04:58:21;;;;;;;17.30;13.23;;;;;;;;;;5063557;28;20412;-51
2023/06/22 05:00:48;;;;;;;13.43;12.10;;;;;;;;;;5054704;28;20468;-51
2023/06/22 05:03:14;;;;;;;14.77;12.80;;;;;;;;;;5061267;28;20504;-51
2023/06/22 05:05:39;;;;;;;16.17;13.20;;;;;;;;;;5057815;28;20487;-51
2023/06/22 05:08:06;;;;;;;15.30;13.80;;;;;;;;;;5056119;28;20375;-51
2023/06/22 05:10:33;;;;;;;17.20;15.60;;;;;;;;;;5056265;28;20424;-51
2023/06/22 05:12:59;;;;;;;16.27;13.60;;;;;;;;;;5057513;28;20537;-51
2023/06/22 05:15:27;;;;;;;13.80;12.40;;;;;;;;;;5057194;28;21036;-52
2023/06/22 05:17:53;;;;;;;14.13;12.57;;;;;;;;;;5052062;28;20414;-50
2023/06/22 05:20:21;;;;;;;14.20;12.70;;;;;;;;;;5057715;28;20477;-51
2023/06/22 05:22:47;;;;;;;15.90;13.77;;;;;;;;;;5058118;28;20894;-51
2023/06/22 05:25:13;;;;;;;15.40;12.87;;;;;;;;;;5052768;28;20410;-51
2023/06/22 05:27:39;;;;;;;14.37;11.20;;;;;;;;;;5049844;28;20438;-51
2023/06/22 05:30:09;;;;;;;12.57;11.10;;;;;;;;;;5052128;28;20440;-51
2023/06/22 05:32:36;;;;;;;15.80;12.57;;;;;;;;;;5046482;28;20412;-50
2023/06/22 05:35:02;;;;;;;17.03;12.30;;;;;;;;;;5050945;28;20420;-50
2023/06/22 05:37:29;;;;;;;13.60;12.40;;;;;;;;;;5064868;28;20893;-51
2023/06/22 05:39:55;;;;;;;16.27;12.70;;;;;;;;;;5058080;28;20426;-52
2023/06/22 05:42:21;;;;;;;12.67;11.00;;;;;;;;;;5051507;28;20509;-52
2023/06/22 05:44:47;;;;;;;13.70;12.40;;;;;;;;;;5053706;28;20439;-51
2023/06/22 05:47:13;;;;;;;15.07;12.33;;;;;;;;;;5052820;28;20406;-51
2023/06/22 05:49:39;;;;;;;12.80;11.30;;;;;;;;;;5057427;28;20429;-51
2023/06/22 05:52:05;;;;;;;13.00;9.80;;;;;;;;;;5048428;28;20440;-51
2023/06/22 05:54:31;;;;;;;12.57;9.40;;;;;;;;;;5042567;28;20500;-51
2023/06/22 05:56:57;;;;;;;11.73;10.10;;;;;;;;;;5062912;28;20464;-51
2023/06/22 05:59:23;;;;;;;11.20;10.20;;;;;;;;;;5049925;28;20447;-50
2023/06/22 06:01:50;;;;;;;20.90;10.53;;;;;;;;;;5051754;28;20465;-50
2023/06/22 06:04:17;;;;;;;12.23;11.10;;;;;;;;;;5051956;28;20483;-51
2023/06/22 06:06:43;;;;;;;13.57;11.20;;;;;;;;;;5055957;28;20401;-51
2023/06/22 06:09:09;;;;;;;15.10;11.80;;;;;;;;;;5054161;28;20421;-51
2023/06/22 06:11:35;;;;;;;12.90;9.87;;;;;;;;;;5061039;28;20438;-51
2023/06/22 06:14:01;;;;;;;9.33;8.33;;;;;;;;;;5056518;28;20490;-52
2023/06/22 06:16:27;;;;;;;10.37;9.17;;;;;;;;;;5048285;28;20445;-51
2023/06/22 06:18:54;;;;;;;12.00;10.70;;;;;;;;;;5045510;28;20422;-51
2023/06/22 06:21:20;;;;;;;9.67;8.73;;;;;;;;;;5050384;28;20561;-50
2023/06/22 06:23:47;;;;;;;9.47;8.63;;;;;;;;;;5066530;28;20432;-50
2023/06/22 06:26:15;;;;;;;14.80;11.67;;;;;;;;;;5053717;28;20501;-51
2023/06/22 06:28:41;;;;;;;12.00;10.70;;;;;;;;;;5052619;28;20413;-51
2023/06/22 06:31:08;;;;;;;14.27;11.23;;;;;;;;;;5054113;28;20527;-52
2023/06/22 06:33:34;;;;;;;13.17;11.70;;;;;;;;;;5038135;28;20754;-51
2023/06/22 06:36:03;;;;;;;12.10;10.80;;;;;;;;;;5043238;28;20509;-51
2023/06/22 06:38:29;;;;;;;14.37;10.53;;;;;;;;;;5051432;28;20932;-49
2023/06/22 06:40:55;;;;;;;13.43;11.93;;;;;;;;;;5051379;28;20468;-51
2023/06/22 06:43:21;;;;;;;12.33;10.50;;;;;;;;;;5050816;28;20430;-51
2023/06/22 06:45:47;;;;;;;14.00;12.50;;;;;;;;;;5048424;28;20396;-51
2023/06/22 06:48:13;;;;;;;13.07;11.87;;;;;;;;;;5054477;28;20398;-51
2023/06/22 06:50:39;;;;;;;12.53;11.10;;;;;;;;;;5062025;28;20426;-51
2023/06/22 06:53:05;;;;;;;12.77;11.57;;;;;;;;;;5058976;28;20409;-50
2023/06/22 06:55:32;;;;;;;11.97;10.53;;;;;;;;;;5045543;28;20410;-51
2023/06/22 06:57:59;;;;;;;15.43;11.60;;;;;;;;;;5052888;28;20488;-51
2023/06/22 07:00:25;;;;;;;14.27;11.77;;;;;;;;;;5049863;28;20454;-51
2023/06/22 07:02:51;;;;;;;11.97;10.80;;;;;;;;;;5049415;28;20413;-50
2023/06/22 07:05:17;;;;;;;12.70;11.23;;;;;;;;;;5050345;28;20400;-51
2023/06/22 07:07:43;;;;;;;11.37;9.80;;;;;;;;;;5043613;28;20449;-51
2023/06/22 07:10:10;;;;;;;12.67;11.43;;;;;;;;;;5044254;28;20407;-52
2023/06/22 07:12:36;;;;;;;13.60;12.40;;;;;;;;;;5055029;28;20426;-51
2023/06/22 07:15:03;;;;;;;13.77;12.57;;;;;;;;;;5061576;28;20411;-52
2023/06/22 07:17:29;;;;;;;12.87;11.67;;;;;;;;;;5053088;28;20791;-51
2023/06/22 07:19:55;;;;;;;13.17;11.57;;;;;;;;;;5053614;28;20401;-51
2023/06/22 07:22:21;;;;;;;13.77;11.10;;;;;;;;;;5052608;28;20461;-52
2023/06/22 07:24:47;;;;;;;13.30;11.57;;;;;;;;;;5056881;28;20406;-51
2023/06/22 07:27:16;;;;;;;14.40;11.90;;;;;;;;;;5048725;28;20433;-51
2023/06/22 07:29:43;;;;;;;12.03;10.90;;;;;;;;;;5062681;28;20412;-52
2023/06/22 07:32:09;;;;;;;14.90;12.80;;;;;;;;;;5040883;28;20921;-52
2023/06/22 07:34:35;;;;;;;17.63;12.73;;;;;;;;;;5051158;28;20414;-51
2023/06/22 07:37:01;;;;;;;12.10;10.57;;;;;;;;;;5051185;28;20424;-51
2023/06/22 07:39:28;;;;;;;16.50;12.33;;;;;;;;;;5049421;28;20950;-48
2023/06/22 07:41:54;;;;;;;13.10;11.80;;;;;;;;;;5025316;28;20691;-51
2023/06/22 07:44:20;;;;;;;14.53;13.13;;;;;;;;;;5058726;28;20930;-51
2023/06/22 07:46:46;;;;;;;15.77;14.00;;;;;;;;;;5041873;28;20412;-50
2023/06/22 07:49:12;;;;;;;15.80;13.93;;;;;;;;;;5041505;28;20416;-48
2023/06/22 07:51:38;;;;;;;15.83;14.23;;;;;;;;;;5052192;28;20437;-49
2023/06/22 07:54:04;;;;;;;15.23;13.33;;;;;;;;;;5053104;28;20409;-48
2023/06/22 07:56:30;;;;;;;14.57;12.87;;;;;;;;;;5049944;28;20878;-48
2023/06/22 07:58:58;;;;;;;15.17;13.67;;;;;;;;;;5056956;28;20416;-48
2023/06/22 08:01:24;;;;;;;16.03;14.20;;;;;;;;;;5052390;28;20461;-50
2023/06/22 08:03:50;;;;;;;19.17;15.00;;;;;;;;;;5048001;28;20486;-50
2023/06/22 08:06:16;;;;;;;16.83;15.13;;;;;;;;;;5043492;28;20497;-51
2023/06/22 08:08:42;;;;;;;19.57;17.37;;;;;;;;;;5056375;28;20406;-51
2023/06/22 08:11:09;;;;;;;21.03;17.57;;;;;;;;;;5058268;28;20806;-50
2023/06/22 08:13:35;;;;;;;23.77;18.97;;;;;;;;;;5056515;28;20443;-51
2023/06/22 08:16:01;;;;;;;28.67;20.10;;;;;;;;;;5056884;28;20522;-50
2023/06/22 08:18:27;;;;;;;22.20;19.13;;;;;;;;;;5056606;28;20417;-50
2023/06/22 08:20:53;;;;;;;23.77;21.37;;;;;;;;;;5058742;28;20493;-50
2023/06/22 08:23:19;;;;;;;23.47;18.27;;;;;;;;;;5061549;28;20515;-50
2023/06/22 08:25:47;;;;;;;22.53;20.20;;;;;;;;;;5052400;28;20483;-52
2023/06/22 08:28:13;;;;;;;29.33;20.70;;;;;;;;;;5051768;28;20422;-50
2023/06/22 08:30:39;;;;;;;22.63;20.00;;;;;;;;;;5049377;28;20443;-51
2023/06/22 08:33:05;;;;;;;28.83;21.67;;;;;;;;;;5058156;28;20544;-51
2023/06/22 08:35:31;;;;;;;24.43;21.83;;;;;;;;;;5065322;28;20409;-50
2023/06/22 08:37:59;;;;;;;26.20;22.33;;;;;;;;;;5059403;28;20408;-52
2023/06/22 08:40:25;;;;;;;26.23;22.20;;;;;;;;;;5050090;28;20452;-51
2023/06/22 08:42:51;;;;;;;25.20;21.33;;;;;;;;;;5061364;28;20899;-50
2023/06/22 08:45:17;;;;;;;28.20;22.00;;;;;;;;;;5054472;28;20494;-51
2023/06/22 08:47:43;;;;;;;24.63;22.20;;;;;;;;;;5057516;28;21109;-51
2023/06/22 08:50:10;;;;;;;23.83;21.27;;;;;;;;;;5056064;28;20472;-52
2023/06/22 08:52:37;;;;;;;28.40;21.87;;;;;;;;;;5063480;28;20410;-51
2023/06/22 08:55:03;;;;;;;23.90;21.37;;;;;;;;;;5059076;28;20413;-51
2023/06/22 08:57:30;;;;;;;26.37;23.63;;;;;;;;;;5048040;28;20424;-50
2023/06/22 08:59:58;;;;;;;23.23;20.83;;;;;;;;;;5045567;28;20981;-51
2023/06/22 09:02:24;;;;;;;23.33;20.20;;;;;;;;;;5052428;28;20457;-52
2023/06/22 09:04:55;;;;;;;24.90;20.83;;;;;;;;;;5053505;28;20393;-52
2023/06/22 09:07:23;;;;;;;22.27;19.07;;;;;;;;;;5054822;28;20406;-51
2023/06/22 09:09:49;;;;;;;20.27;18.27;;;;;;;;;;5058206;28;20481;-50
2023/06/22 09:12:15;;;;;;;29.73;18.00;;;;;;;;;;5056161;28;20483;-51
2023/06/22 09:14:41;;;;;;;18.27;16.57;;;;;;;;;;5049340;28;20413;-51
2023/06/22 09:17:07;;;;;;;17.43;15.33;;;;;;;;;;5043738;28;20410;-51
2023/06/22 09:19:33;;;;;;;14.00;12.70;;;;;;;;;;5053246;28;20516;-50
2023/06/22 09:21:59;;;;;;;16.70;11.90;;;;;;;;;;5053109;28;21004;-51
2023/06/22 09:24:25;;;;;;;16.33;14.60;;;;;;;;;;5052166;28;20466;-51
2023/06/22 09:26:51;;;;;;;12.53;11.40;;;;;;;;;;5045237;28;20417;-51
2023/06/22 09:29:17;;;;;;;14.57;11.67;;;;;;;;;;5053865;28;20410;-52
2023/06/22 09:31:44;;;;;;;17.90;11.43;;;;;;;;;;5062498;28;20433;-52
2023/06/22 09:34:10;;;;;;;11.30;10.20;;;;;;;;;;5053909;28;20417;-51
2023/06/22 09:36:36;;;;;;;11.47;10.10;;;;;;;;;;5053212;28;20479;-52
2023/06/22 09:39:06;;;;;;;10.17;9.17;;;;;;;;;;5035253;28;20421;-51
2023/06/22 09:41:32;;;;;;;9.90;8.90;;;;;;;;;;5052842;28;20870;-51
2023/06/22 09:43:58;;;;;;;9.77;8.73;;;;;;;;;;5053209;28;20389;-51
2023/06/22 09:46:27;;;;;;;9.53;8.73;;;;;;;;;;5052994;28;20393;-52
2023/06/22 09:48:53;;;;;;;10.90;8.40;;;;;;;;;;5052867;28;20459;-51
2023/06/22 09:51:21;;;;;;;8.53;7.80;;;;;;;;;;5052560;28;20425;-52
2023/06/22 09:53:47;;;;;;;9.00;8.20;;;;;;;;;;5052875;28;20914;-52
2023/06/22 09:56:14;;;;;;;11.23;7.90;;;;;;;;;;5052919;28;20424;-51
2023/06/22 09:58:43;;;;;;;10.03;8.80;;;;;;;;;;5045554;28;20425;-50
2023/06/22 10:01:10;;;;;;;9.07;8.03;;;;;;;;;;5052338;28;20456;-51
2023/06/22 10:03:36;;;;;;;8.07;7.33;;;;;;;;;;5052583;28;20428;-51
2023/06/22 10:06:02;;;;;;;7.83;7.23;;;;;;;;;;5039665;28;20768;-51
2023/06/22 10:08:28;;;;;;;8.57;7.70;;;;;;;;;;5049680;28;20420;-51
2023/06/22 10:10:54;;;;;;;8.47;7.67;;;;;;;;;;5052151;28;20954;-51
2023/06/22 10:13:20;;;;;;;8.47;7.77;;;;;;;;;;5052394;28;20490;-50
2023/06/22 10:15:49;;;;;;;8.50;7.80;;;;;;;;;;5052532;28;20500;-51
2023/06/22 10:18:16;;;;;;;8.70;7.90;;;;;;;;;;5052100;28;20917;-51
2023/06/22 10:20:42;;;;;;;8.27;7.67;;;;;;;;;;5052015;28;20492;-51
2023/06/22 10:23:08;;;;;;;8.63;7.80;;;;;;;;;;5052592;28;20441;-51
2023/06/22 10:25:34;;;;;;;9.77;8.87;;;;;;;;;;5052391;28;20406;-51
2023/06/22 10:28:00;;;;;;;9.77;8.87;;;;;;;;;;5051178;28;20432;-51
2023/06/22 10:30:26;;;;;;;8.83;8.10;;;;;;;;;;5051963;28;20441;-51
2023/06/22 10:32:52;;;;;;;8.97;8.17;;;;;;;;;;5060665;28;20407;-51
2023/06/22 10:35:18;;;;;;;9.30;8.27;;;;;;;;;;5055920;28;20910;-51
2023/06/22 10:37:45;;;;;;;8.87;8.17;;;;;;;;;;5046588;28;20406;-51
2023/06/22 10:40:12;;;;;;;9.00;8.27;;;;;;;;;;5049634;28;20406;-52
2023/06/22 10:42:38;;;;;;;10.40;9.30;;;;;;;;;;5048486;28;20406;-52
2023/06/22 10:45:04;;;;;;;10.40;9.30;;;;;;;;;;5048784;28;20411;-50
2023/06/22 10:47:30;;;;;;;9.83;8.90;;;;;;;;;;5042583;28;20816;-51
2023/06/22 10:49:56;;;;;;;10.53;9.50;;;;;;;;;;5048793;28;20407;-51
2023/06/22 10:52:22;;;;;;;10.20;9.20;;;;;;;;;;5064895;28;20968;-50
2023/06/22 10:54:48;;;;;;;9.43;8.53;;;;;;;;;;5056552;28;20404;-51
2023/06/22 10:57:14;;;;;;;10.50;9.53;;;;;;;;;;5051922;28;20440;-52
2023/06/22 10:59:40;;;;;;;9.33;8.53;;;;;;;;;;5055654;28;20421;-51
2023/06/22 11:02:06;;;;;;;11.27;10.23;;;;;;;;;;5051537;28;20519;-52
2023/06/22 11:04:32;;;;;;;10.57;9.57;;;;;;;;;;5051661;28;20405;-51
2023/06/22 11:06:58;;;;;;;10.07;9.07;;;;;;;;;;5051575;28;20968;-51
2023/06/22 11:09:24;;;;;;;10.70;9.80;;;;;;;;;;5051518;28;20777;-51
2023/06/22 11:11:53;;;;;;;11.10;9.80;;;;;;;;;;5051445;28;20441;-51
2023/06/22 11:14:19;;;;;;;11.03;9.93;;;;;;;;;;5051538;28;20465;-51
2023/06/22 11:16:46;;;;;;;14.70;9.53;;;;;;;;;;5051420;28;20409;-51
2023/06/22 11:19:12;;;;;;;17.60;9.70;;;;;;;;;;5051574;28;20421;-51
2023/06/22 11:21:38;;;;;;;13.23;9.93;;;;;;;;;;5051203;28;20464;-51
2023/06/22 11:24:04;;;;;;;15.93;9.50;;;;;;;;;;5051501;28;20413;-50
2023/06/22 11:26:31;;;;;;;10.77;9.87;;;;;;;;;;5051411;28;20425;-51
2023/06/22 11:28:57;;;;;;;18.07;10.20;;;;;;;;;;5050504;28;20420;-51
2023/06/22 11:31:24;;;;;;;12.53;10.97;;;;;;;;;;5052474;28;20514;-51
2023/06/22 11:33:49;;;;;;;11.30;10.30;;;;;;;;;;5048880;28;20418;-51
2023/06/22 11:36:16;;;;;;;16.43;13.10;;;;;;;;;;5051277;28;20416;-52
2023/06/22 11:38:42;;;;;;;12.37;11.07;;;;;;;;;;5051454;28;20433;-52
2023/06/22 11:41:09;;;;;;;17.60;12.13;;;;;;;;;;5052026;28;20555;-51
2023/06/22 11:43:35;;;;;;;15.27;13.67;;;;;;;;;;5055409;28;20417;-50
2023/06/22 11:46:03;;;;;;;15.57;13.87;;;;;;;;;;5055264;28;20804;-51
2023/06/22 11:48:29;;;;;;;14.50;12.60;;;;;;;;;;5055270;28;20415;-52
2023/06/22 11:50:55;;;;;;;18.70;13.60;;;;;;;;;;5055094;28;20973;-52
2023/06/22 11:53:22;;;;;;;15.10;13.33;;;;;;;;;;5056084;28;20421;-51
2023/06/22 11:55:49;;;;;;;15.83;14.30;;;;;;;;;;5055581;28;20437;-51
2023/06/22 11:58:15;;;;;;;21.00;14.50;;;;;;;;;;5055312;28;20401;-51
2023/06/22 12:00:41;;;;;;;20.07;13.20;;;;;;;;;;5053754;28;20560;-51
2023/06/22 12:03:07;;;;;;;15.27;13.27;;;;;;;;;;5054594;28;20426;-51
2023/06/22 12:05:33;;;;;;;18.43;14.30;;;;;;;;;;5058382;28;20416;-51
2023/06/22 12:07:59;;;;;;;15.40;13.90;;;;;;;;;;5054663;28;20892;-50
2023/06/22 12:10:31;;;;;;;19.17;15.30;;;;;;;;;;5054651;28;20948;-51
2023/06/22 12:12:58;;;;;;;19.00;14.70;;;;;;;;;;5054425;28;20794;-52
2023/06/22 12:15:24;;;;;;;15.70;13.83;;;;;;;;;;5053606;28;20400;-51
2023/06/22 12:17:50;;;;;;;18.23;15.13;;;;;;;;;;5054365;28;20479;-50
2023/06/22 12:20:16;;;;;;;20.10;17.30;;;;;;;;;;5053352;28;20782;-51
2023/06/22 12:22:42;;;;;;;23.30;19.70;;;;;;;;;;5058783;28;20496;-50
2023/06/22 12:25:08;;;;;;;21.80;19.50;;;;;;;;;;5061656;28;20403;-51
2023/06/22 12:27:35;;;;;;;22.10;19.77;;;;;;;;;;5051394;28;20400;-50
2023/06/22 12:30:00;;;;;;;18.67;16.77;;;;;;;;;;5050562;28;20416;-50
2023/06/22 12:32:26;;;;;;;19.23;17.20;;;;;;;;;;5063381;28;20839;-51
2023/06/22 12:34:52;;;;;;;21.13;16.73;;;;;;;;;;5057619;28;20397;-50
2023/06/22 12:37:18;;;;;;;18.20;16.27;;;;;;;;;;5055248;28;20409;-51
2023/06/22 12:39:44;;;;;;;21.03;16.73;;;;;;;;;;5061050;28;20439;-51
2023/06/22 12:42:11;;;;;;;16.90;15.10;;;;;;;;;;5047844;28;20503;-51
2023/06/22 12:44:41;;;;;;;23.23;15.63;;;;;;;;;;5045295;28;20425;-51
2023/06/22 12:47:08;;;;;;;22.33;15.80;;;;;;;;;;5057597;28;20856;-51
2023/06/22 12:49:34;;;;;;;20.07;16.73;;;;;;;;;;5054212;28;20488;-51
2023/06/22 12:52:00;;;;;;;21.93;15.33;;;;;;;;;;5053298;28;20493;-50
2023/06/22 12:54:27;;;;;;;20.53;14.63;;;;;;;;;;5053349;28;20407;-50
2023/06/22 12:56:53;;;;;;;18.30;16.50;;;;;;;;;;5054156;28;20409;-51
2023/06/22 12:59:19;;;;;;;17.77;15.20;;;;;;;;;;5053807;28;20416;-51
2023/06/22 13:01:45;;;;;;;19.37;16.60;;;;;;;;;;5052628;28;20471;-51
2023/06/22 13:04:15;;;;;;;19.20;17.23;;;;;;;;;;5054087;28;20422;-51
2023/06/22 13:06:41;;;;;;;19.63;16.60;;;;;;;;;;5053736;28;20413;-51
2023/06/22 13:09:08;;;;;;;22.07;16.87;;;;;;;;;;5053775;28;20426;-52
2023/06/22 13:11:34;;;;;;;19.77;17.77;;;;;;;;;;5053470;28;20431;-50
2023/06/22 13:14:00;;;;;;;22.27;17.87;;;;;;;;;;5053655;28;20458;-50
2023/06/22 13:16:26;;;;;;;27.90;17.80;;;;;;;;;;5053688;28;20434;-51
2023/06/22 13:18:52;;;;;;;20.17;18.07;;;;;;;;;;5053596;28;20426;-51
2023/06/22 13:21:18;;;;;;;28.23;18.70;;;;;;;;;;5053101;28;20491;-51
2023/06/22 13:23:44;;;;;;;21.07;18.87;;;;;;;;;;5053485;28;20421;-51
2023/06/22 13:26:10;;;;;;;20.40;17.50;;;;;;;;;;5061133;28;20427;-51
2023/06/22 13:28:36;;;;;;;18.67;16.73;;;;;;;;;;5055257;28;20985;-50
2023/06/22 13:31:02;;;;;;;16.87;15.27;;;;;;;;;;5057103;28;20517;-51
2023/06/22 13:33:28;;;;;;;18.70;16.80;;;;;;;;;;5058414;28;20417;-50
2023/06/22 13:35:54;;;;;;;18.03;16.10;;;;;;;;;;5047436;28;20454;-50
2023/06/22 13:38:20;;;;;;;17.23;15.67;;;;;;;;;;5045866;28;20414;-50
2023/06/22 13:40:47;;;;;;;17.43;15.73;;;;;;;;;;5055055;28;20465;-50
2023/06/22 13:43:13;;;;;;;16.90;15.13;;;;;;;;;;5052241;28;20413;-50
2023/06/22 13:45:39;;;;;;;16.53;14.77;;;;;;;;;;5053034;28;20433;-51
2023/06/22 13:48:05;;;;;;;18.80;16.13;;;;;;;;;;5052933;28;20413;-51
2023/06/22 13:50:31;;;;;;;17.70;15.30;;;;;;;;;;5052534;28;20514;-50
2023/06/22 13:52:57;;;;;;;18.03;16.30;;;;;;;;;;5052962;28;20409;-50
2023/06/22 13:55:23;;;;;;;15.67;14.00;;;;;;;;;;5052969;28;21051;-50
2023/06/22 13:57:51;;;;;;;16.43;14.93;;;;;;;;;;5052688;28;20455;-52
2023/06/22 14:00:17;;;;;;;17.57;15.87;;;;;;;;;;5065497;28;20428;-51
2023/06/22 14:02:43;;;;;;;18.77;16.77;;;;;;;;;;5048688;28;20533;-51
2023/06/22 14:05:10;;;;;;;17.57;15.77;;;;;;;;;;5049539;28;20423;-50
2023/06/22 14:07:37;;;;;;;17.87;15.80;;;;;;;;;;5051835;28;20421;-51
2023/06/22 14:10:03;;;;;;;18.10;16.40;;;;;;;;;;5051103;28;20504;-52
2023/06/22 14:12:29;;;;;;;18.23;16.43;;;;;;;;;;5054803;28;20772;-50
2023/06/22 14:14:55;;;;;;;17.77;15.90;;;;;;;;;;5058285;28;20839;-50
2023/06/22 14:17:25;;;;;;;19.57;16.23;;;;;;;;;;5055211;28;20444;-51
2023/06/22 14:19:54;;;;;;;18.20;16.40;;;;;;;;;;5051032;28;20987;-51
2023/06/22 14:22:21;;;;;;;17.90;16.10;;;;;;;;;;5056524;28;20557;-52